Terminal Aerodrome Forecast
Issued by NWS Albany, NY

Home | Current Version | Previous Version | Text Only | Print | Product List | Glossary On
Versions: 1 2 3 4 5 6 7 8 9 10 11 12 13 14 15 16 17 18 19 20
000
FTUS41 KALY 030700 AAB
TAFALB
TAF AMD
KALB 030703Z 0307/0406 30007KT P6SM FEW015 OVC030
     FM031230 27009G19KT P6SM SCT040 SCT100
     FM040200 VRB03KT P6SM SKC=

USA.gov is the U.S. government's official web portal to all federal, state and local government web resources and services.